Time;durP1;ratioP1;P1;durP2;ratioP2;P2;SDS_P1;SDS_P2;PMS_P1;PMS_P2;Temp;Humidity;BMP_temperature;BMP_pressure;BME280_temperature;BME280_humidity;BME280_pressure;Samples;Min_cycle;Max_cycle;Signal;HPM_P1;HPM_P2
2021/12/19 00:01:03;;;;;;;3.25;1.23;;;;;;;;;;5050018;28;20119;-75
2021/12/19 00:03:51;;;;;;;2.92;0.82;;;;;;;;;;5044366;28;20090;-76
2021/12/19 00:09:03;;;;;;;3.58;0.90;;;;;;;;;;5054011;28;20048;-75
2021/12/19 00:11:30;;;;;;;3.20;1.20;;;;;;;;;;5056073;28;20510;-75
2021/12/19 00:13:56;;;;;;;5.20;1.15;;;;;;;;;;5053380;28;20068;-75
2021/12/19 00:16:23;;;;;;;10.55;1.80;;;7.40;99.90;;;;;;5040196;28;20047;-75
2021/12/19 00:18:52;;;;;;;5.97;2.03;;;;;;;;;;5047524;28;20044;-75
2021/12/19 00:21:19;;;;;;;11.93;2.50;;;;;;;;;;5032184;28;20403;-75
2021/12/19 00:23:46;;;;;;;5.90;2.08;;;7.50;99.90;;;;;;5043315;28;20055;-75
2021/12/19 00:26:13;;;;;;;5.93;1.63;;;;;;;;;;5037864;28;20037;-75
2021/12/19 00:28:39;;;;;;;3.42;1.45;;;;;;;;;;5059715;28;20606;-75
2021/12/19 00:31:06;;;;;;;4.55;1.25;;;;;;;;;;5032772;28;20643;-76
2021/12/19 00:33:32;;;;;;;2.25;1.10;;;;;;;;;;5051618;28;20036;-74
2021/12/19 00:35:59;;;;;;;5.07;1.15;;;7.50;99.90;;;;;;5037873;28;20124;-74
2021/12/19 00:38:26;;;;;;;4.10;1.60;;;;;;;;;;5045076;28;20049;-74
2021/12/19 00:40:52;;;;;;;6.75;1.60;;;;;;;;;;5060846;28;20114;-74
2021/12/19 00:43:54;;;;;;;1.67;0.70;;;;;;;;;;5057187;28;20387;-74
2021/12/19 00:46:13;;;;;;;5.47;1.17;;;7.50;99.90;;;;;;5054984;28;20129;-74
2021/12/19 00:48:41;;;;;;;2.05;0.80;;;;;;;;;;5045623;28;20048;-74
2021/12/19 00:51:08;;;;;;;2.45;0.70;;;;;;;;;;5053031;28;20104;-74
2021/12/19 00:53:35;;;;;;;1.77;0.57;;;7.40;99.90;;;;;;5043756;28;20407;-74
2021/12/19 00:56:02;;;;;;;1.55;0.40;;;;;;;;;;5043685;28;20560;-74
2021/12/19 00:58:28;;;;;;;1.05;0.30;;;;;;;;;;5056267;28;20051;-74
2021/12/19 01:00:54;;;;;;;1.65;0.47;;;;;;;;;;5050470;28;20033;-77
2021/12/19 01:03:21;;;;;;;4.22;0.50;;;;;;;;;;5057229;28;20063;-76
2021/12/19 01:05:48;;;;;;;1.85;0.50;;;;;;;;;;5039291;28;20036;-76
2021/12/19 01:08:15;;;;;;;0.88;0.25;;;;;;;;;;5044376;28;20056;-76
2021/12/19 01:10:42;;;;;;;1.48;0.28;;;;;;;;;;5043335;28;20134;-76
2021/12/19 01:13:09;;;;;;;1.00;0.20;;;;;;;;;;5040346;28;20502;-74
2021/12/19 01:15:35;;;;;;;0.82;0.38;;;;;;;;;;5057495;28;20483;-74
2021/12/19 01:18:03;;;;;;;1.70;0.70;;;7.30;99.90;;;;;;5046269;28;20036;-74
2021/12/19 01:20:30;;;;;;;1.70;0.90;;;;;;;;;;5055041;28;20044;-74
2021/12/19 01:22:57;;;;;;;2.22;0.60;;;;;;;;;;5027372;28;20033;-74
2021/12/19 01:25:23;;;;;;;1.60;0.50;;;;;;;;;;5030687;28;20515;-74
2021/12/19 01:27:49;;;;;;;2.25;0.63;;;;;;;;;;5048161;28;20048;-75
2021/12/19 01:30:16;;;;;;;1.60;0.35;;;;;;;;;;5037290;28;20475;-75
2021/12/19 01:32:43;;;;;;;1.27;0.38;;;;;;;;;;5056021;28;20067;-75
2021/12/19 01:35:11;;;;;;;3.33;1.02;;;;;;;;;;5034755;28;20029;-74
2021/12/19 01:37:37;;;;;;;3.58;1.38;;;;;;;;;;5040867;28;20931;-75
2021/12/19 01:40:04;;;;;;;2.78;1.13;;;;;;;;;;5056520;28;20044;-75
2021/12/19 01:42:31;;;;;;;1.65;0.98;;;;;;;;;;5050210;28;20040;-74
2021/12/19 01:44:58;;;;;;;4.63;0.80;;;;;;;;;;5058264;28;20136;-74
2021/12/19 01:47:24;;;;;;;1.77;0.65;;;;;;;;;;5054178;28;20048;-75
2021/12/19 01:49:50;;;;;;;5.45;0.93;;;;;;;;;;5049267;28;20047;-75
2021/12/19 01:52:16;;;;;;;6.30;0.98;;;;;;;;;;5039846;28;20087;-75
2021/12/19 01:54:44;;;;;;;0.85;0.52;;;;;;;;;;5033660;28;20095;-75
2021/12/19 01:57:10;;;;;;;1.02;0.30;;;8.40;99.90;;;;;;5053472;28;20060;-75
2021/12/19 01:59:36;;;;;;;1.10;0.25;;;;;;;;;;5046166;28;20224;-75
2021/12/19 02:02:03;;;;;;;0.77;0.20;;;;;;;;;;5025932;28;20053;-75
2021/12/19 02:04:30;;;;;;;1.10;0.10;;;;;;;;;;5055933;28;20728;-75
2021/12/19 02:06:57;;;;;;;0.25;0.13;;;;;;;;;;5030715;28;20779;-75
2021/12/19 02:09:25;;;;;;;1.85;0.13;;;;;;;;;;5050937;28;20085;-75
2021/12/19 02:11:51;;;;;;;1.38;0.30;;;;;;;;;;5051036;28;20155;-75
2021/12/19 02:14:18;;;;;;;2.85;0.60;;;;;;;;;;5047268;28;20048;-75
2021/12/19 02:16:44;;;;;;;3.28;0.30;;;;;;;;;;5038396;28;20071;-74
2021/12/19 02:19:11;;;;;;;1.95;0.30;;;;;;;;;;5053968;28;20047;-75
2021/12/19 02:21:37;;;;;;;0.82;0.22;;;;;;;;;;5050142;28;20616;-74
2021/12/19 02:24:05;;;;;;;0.30;0.25;;;;;;;;;;5032254;28;20082;-75
2021/12/19 02:26:31;;;;;;;2.53;0.60;;;;;;;;;;5056188;28;20049;-75
2021/12/19 02:28:58;;;;;;;2.78;0.40;;;7.00;99.90;;;;;;5042941;28;20131;-75
2021/12/19 02:31:24;;;;;;;0.95;0.38;;;;;;;;;;5035179;28;20057;-75
2021/12/19 02:34:03;;;;;;;3.78;0.80;;;;;;;;;;5055514;28;20452;-75
2021/12/19 02:50:12;;;;;;;2.55;0.57;;;;;;;;;;5053919;28;20612;-75
2021/12/19 02:52:38;;;;;;;2.75;0.43;;;;;;;;;;5053796;28;20040;-75
2021/12/19 02:55:06;;;;;;;1.75;0.60;;;;;;;;;;5055278;28;20109;-75
2021/12/19 02:57:33;;;;;;;2.80;0.40;;;;;;;;;;5067529;28;20041;-75
2021/12/19 02:59:59;;;;;;;1.58;0.45;;;;;;;;;;5048576;28;20080;-75
2021/12/19 03:02:25;;;;;;;9.20;1.05;;;;;;;;;;5045860;28;20056;-75
2021/12/19 03:04:55;;;;;;;2.40;0.93;;;;;;;;;;5059491;28;20072;-75
2021/12/19 03:07:24;;;;;;;1.80;0.70;;;;;;;;;;5042649;28;20049;-75
2021/12/19 03:17:59;;;;;;;1.98;0.50;;;;;;;;;;5063324;28;20449;-75
2021/12/19 03:20:27;;;;;;;3.75;0.85;;;;;;;;;;5040409;28;20135;-75
2021/12/19 03:22:53;;;;;;;1.05;0.20;;;;;;;;;;5035838;28;20511;-75
2021/12/19 03:25:19;;;;;;;2.92;0.52;;;;;;;;;;5060619;28;20375;-75
2021/12/19 03:27:45;;;;;;;4.40;0.60;;;;;;;;;;5051584;28;20040;-75
2021/12/19 03:30:12;;;;;;;4.25;0.63;;;;;;;;;;5053100;28;20063;-75
2021/12/19 03:32:38;;;;;;;4.53;1.00;;;;;;;;;;5064246;28;20375;-75
2021/12/19 03:35:06;;;;;;;3.85;0.40;;;;;;;;;;5046351;28;20039;-75
2021/12/19 03:37:32;;;;;;;5.43;0.80;;;;;;;;;;5049003;28;20033;-75
2021/12/19 03:40:09;;;;;;;4.80;0.93;;;;;;;;;;5052633;28;20557;-75
2021/12/19 03:42:36;;;;;;;3.53;0.80;;;;;;;;;;5044623;28;20486;-75
2021/12/19 03:45:04;;;;;;;3.08;1.30;;;7.00;99.90;;;;;;5037917;28;20379;-75
2021/12/19 03:47:30;;;;;;;5.10;0.80;;;;;;;;;;5040222;28;20110;-75
2021/12/19 03:49:57;;;;;;;1.77;0.40;;;;;;;;;;5045132;28;20112;-75
2021/12/19 03:52:23;;;;;;;3.65;0.40;;;;;;;;;;5036268;28;20089;-74
2021/12/19 03:54:49;;;;;;;3.75;0.47;;;;;;;;;;5063074;28;20112;-75
2021/12/19 03:57:15;;;;;;;11.85;0.85;;;;;;;;;;5053697;28;20086;-75
2021/12/19 03:59:46;;;;;;;6.00;1.40;;;6.80;99.90;;;;;;5062000;28;20131;-75
2021/12/19 04:02:12;;;;;;;3.83;0.93;;;;;;;;;;5056468;28;20132;-76
2021/12/19 04:04:39;;;;;;;4.70;0.98;;;;;;;;;;5058944;28;20104;-75
2021/12/19 04:07:06;;;;;;;3.20;0.70;;;;;;;;;;5056367;28;20162;-75
2021/12/19 04:09:32;;;;;;;3.97;0.88;;;;;;;;;;5056170;28;20597;-75
2021/12/19 04:11:58;;;;;;;5.35;1.70;;;;;;;;;;5036090;28;20039;-75
2021/12/19 04:14:25;;;;;;;7.43;1.50;;;;;;;;;;5052518;28;20036;-75
2021/12/19 04:16:51;;;;;;;11.75;2.33;;;;;;;;;;5040669;28;20503;-75
2021/12/19 04:19:20;;;;;;;3.03;1.23;;;;;;;;;;5050017;28;20378;-75
2021/12/19 04:21:46;;;;;;;12.88;2.42;;;;;;;;;;5049947;28;20047;-75
2021/12/19 04:24:12;;;;;;;6.45;1.70;;;;;;;;;;5050366;28;20512;-75
2021/12/19 04:26:38;;;;;;;10.32;2.00;;;;;;;;;;5041962;28;20049;-75
2021/12/19 04:29:05;;;;;;;17.45;3.40;;;;;;;;;;5062376;28;20162;-75
2021/12/19 04:31:31;;;;;;;13.70;3.20;;;;;;;;;;5048394;28;20055;-75
2021/12/19 04:33:57;;;;;;;10.15;2.83;;;7.20;99.90;;;;;;5056359;28;20150;-75
2021/12/19 04:36:31;;;;;;;12.90;3.30;;;;;;;;;;5058163;28;20040;-75
2021/12/19 04:42:04;;;;;;;9.85;3.45;;;8.40;99.90;;;;;;5049758;28;20052;-75
2021/12/19 04:59:55;;;;;;;17.48;6.15;;;;;;;;;;5052498;28;20048;-75
2021/12/19 05:15:57;;;;;;;24.83;8.55;;;;;;;;;;5060114;28;20110;-75
2021/12/19 05:18:27;;;;;;;21.45;8.73;;;;;;;;;;5038477;28;20040;-75
2021/12/19 05:21:04;;;;;;;32.33;11.15;;;;;;;;;;5047887;28;20052;-75
2021/12/19 05:25:57;;;;;;;19.65;9.07;;;;;;;;;;5055976;28;20122;-75
2021/12/19 05:28:23;;;;;;;26.27;9.95;;;;;;;;;;5050884;28;20098;-75
2021/12/19 05:30:49;;;;;;;18.77;7.15;;;;;;;;;;5056930;28;20044;-75
2021/12/19 05:33:16;;;;;;;22.58;5.90;;;;;;;;;;5040869;28;20056;-75
2021/12/19 05:46:24;;;;;;;16.08;2.70;;;;;;;;;;5047403;28;20090;-75
2021/12/19 05:48:50;;;;;;;12.30;2.75;;;7.50;99.90;;;;;;5038833;28;20570;-75
2021/12/19 05:51:16;;;;;;;18.48;3.25;;;;;;;;;;5037309;28;20044;-75
2021/12/19 05:53:42;;;;;;;22.75;4.07;;;;;;;;;;5057579;28;20090;-75
2021/12/19 05:56:08;;;;;;;19.65;4.47;;;;;;;;;;5050752;28;20508;-75
2021/12/19 05:58:34;;;;;;;11.68;3.10;;;;;;;;;;5055407;28;20040;-75
2021/12/19 06:01:00;;;;;;;8.82;2.92;;;;;;;;;;5039809;28;20039;-75
2021/12/19 06:03:26;;;;;;;11.68;3.85;;;;;;;;;;5058459;28;20554;-75
2021/12/19 06:05:53;;;;;;;12.88;3.53;;;;;;;;;;5049377;28;20511;-75
2021/12/19 06:08:19;;;;;;;17.70;4.07;;;;;;;;;;5041726;28;21505;-75
2021/12/19 06:10:45;;;;;;;13.40;3.58;;;;;;;;;;5038403;28;20361;-75
2021/12/19 06:13:11;;;;;;;18.33;3.85;;;;;;;;;;5059346;28;20555;-74
2021/12/19 06:15:37;;;;;;;13.63;3.42;;;;;;;;;;5058606;28;20040;-75
2021/12/19 06:18:04;;;;;;;10.95;3.88;;;;;;;;;;5055834;28;20044;-75
2021/12/19 06:20:31;;;;;;;13.98;4.70;;;;;;;;;;5052024;28;20044;-75
2021/12/19 06:22:58;;;;;;;9.07;3.03;;;;;;;;;;5059971;28;20083;-75
2021/12/19 06:25:25;;;;;;;10.80;3.58;;;;;;;;;;5061027;28;20040;-75
2021/12/19 06:27:51;;;;;;;11.05;3.35;;;;;;;;;;5049004;28;20045;-75
2021/12/19 06:30:36;;;;;;;12.13;3.17;;;;;;;;;;5057506;28;20051;-77
2021/12/19 06:33:02;;;;;;;12.07;2.92;;;;;;;;;;5049606;28;20045;-77
2021/12/19 06:35:29;;;;;;;6.95;2.47;;;;;;;;;;5037700;28;20033;-77
2021/12/19 06:37:55;;;;;;;10.48;2.78;;;;;;;;;;5059992;28;20036;-77
2021/12/19 06:40:22;;;;;;;12.07;1.45;;;;;;;;;;5050595;28;20340;-77
2021/12/19 06:42:48;;;;;;;8.45;2.67;;;;;;;;;;5060639;28;20048;-77
2021/12/19 06:45:15;;;;;;;8.68;1.65;;;;;;;;;;5054101;28;20044;-77
2021/12/19 06:47:41;;;;;;;8.70;2.45;;;;;;;;;;5046093;28;20410;-77
2021/12/19 06:50:08;;;;;;;6.75;1.23;;;;;;;;;;5051272;28;20040;-77
2021/12/19 06:52:35;;;;;;;7.28;2.10;;;;;;;;;;5041702;28;20036;-77
2021/12/19 06:55:01;;;;;;;12.38;1.60;;;;;;;;;;5041197;28;20033;-77
2021/12/19 06:57:27;;;;;;;8.80;1.77;;;;;;;;;;5043397;28;20044;-77
2021/12/19 06:59:53;;;;;;;7.30;1.52;;;;;;;;;;5060693;28;20044;-77
2021/12/19 07:02:19;;;;;;;11.05;2.03;;;;;;;;;;5040933;28;20068;-77
2021/12/19 07:04:46;;;;;;;10.40;1.85;;;;;;;;;;5058089;28;20044;-77
2021/12/19 07:07:12;;;;;;;8.80;1.70;;;7.20;99.90;;;;;;5062701;28;20037;-77
2021/12/19 07:09:39;;;;;;;6.40;1.30;;;7.20;99.90;;;;;;5044185;28;20052;-77
2021/12/19 07:12:07;;;;;;;10.70;1.80;;;;;;;;;;5059339;28;20036;-77
2021/12/19 07:14:33;;;;;;;11.40;1.92;;;;;;;;;;5053141;28;20537;-77
2021/12/19 07:16:59;;;;;;;9.55;1.83;;;;;;;;;;5053424;28;20140;-77
2021/12/19 07:19:26;;;;;;;11.50;2.40;;;;;;;;;;5034514;28;20563;-77
2021/12/19 07:21:52;;;;;;;8.52;2.50;;;;;;;;;;5060466;28;20135;-77
2021/12/19 07:24:18;;;;;;;14.43;2.72;;;;;;;;;;5054484;28;20101;-77
2021/12/19 07:26:44;;;;;;;11.70;2.35;;;;;;;;;;5053456;28;20107;-77
2021/12/19 07:29:10;;;;;;;10.32;2.83;;;;;;;;;;5061979;28;20037;-77
2021/12/19 07:31:38;;;;;;;12.48;2.38;;;;;;;;;;5058378;28;20047;-75
2021/12/19 07:34:05;;;;;;;11.63;3.00;;;;;;;;;;5055731;28;20510;-75
2021/12/19 07:36:39;;;;;;;10.25;3.10;;;;;;;;;;5037009;28;20594;-75
2021/12/19 07:39:22;;;;;;;12.30;3.47;;;;;;;;;;5057234;28;20041;-75
2021/12/19 07:41:48;;;;;;;15.77;3.08;;;;;;;;;;5039360;28;20044;-75
2021/12/19 07:44:14;;;;;;;18.08;4.80;;;;;;;;;;5056676;28;20094;-75
2021/12/19 07:46:40;;;;;;;12.15;3.30;;;;;;;;;;5056731;28;20052;-75
2021/12/19 07:49:06;;;;;;;12.95;3.38;;;7.70;99.90;;;;;;5049410;28;20044;-75
2021/12/19 07:51:33;;;;;;;18.67;3.83;;;;;;;;;;5034406;28;20571;-75
2021/12/19 07:53:59;;;;;;;17.85;4.03;;;;;;;;;;5032438;28;20071;-75
2021/12/19 07:56:25;;;;;;;21.67;3.75;;;;;;;;;;5056782;28;20036;-75
2021/12/19 07:58:51;;;;;;;15.32;3.83;;;7.70;99.90;;;;;;5040188;28;20085;-75
2021/12/19 08:01:17;;;;;;;13.20;3.03;;;;;;;;;;5043401;28;20036;-75
2021/12/19 08:03:43;;;;;;;12.23;3.25;;;;;;;;;;5047239;28;20056;-75
2021/12/19 08:06:09;;;;;;;19.75;3.63;;;;;;;;;;5058717;28;20499;-75
2021/12/19 08:08:36;;;;;;;15.07;3.72;;;;;;;;;;5051678;28;20155;-75
2021/12/19 08:13:47;;;;;;;11.30;2.60;;;;;;;;;;5055370;28;20080;-75
2021/12/19 08:16:13;;;;;;;7.13;1.80;;;;;;;;;;5058764;28;20374;-75
2021/12/19 08:18:39;;;;;;;14.23;2.22;;;;;;;;;;5046689;28;20518;-78
2021/12/19 08:21:05;;;;;;;11.98;1.95;;;;;;;;;;5036195;28;20041;-76
2021/12/19 08:23:33;;;;;;;6.70;1.83;;;;;;;;;;5054113;28;20128;-75
2021/12/19 08:25:59;;;;;;;12.38;2.50;;;;;;;;;;5048442;28;20600;-76
2021/12/19 08:28:25;;;;;;;4.15;1.50;;;;;;;;;;5053870;28;20041;-76
2021/12/19 08:30:51;;;;;;;10.30;2.13;;;;;;;;;;5060347;28;20082;-75
2021/12/19 08:33:18;;;;;;;7.07;2.08;;;;;;;;;;5058348;28;20112;-76
2021/12/19 08:35:44;;;;;;;12.88;2.22;;;;;;;;;;5053914;28;20519;-75
2021/12/19 08:38:10;;;;;;;9.95;2.35;;;;;;;;;;5057559;28;20032;-75
2021/12/19 08:40:37;;;;;;;10.32;2.17;;;;;;;;;;5029927;28;20080;-75
2021/12/19 08:43:05;;;;;;;7.10;1.80;;;;;;;;;;5055502;28;20109;-76
2021/12/19 08:45:31;;;;;;;6.80;1.35;;;;;;;;;;5031815;28;20044;-76
2021/12/19 08:47:58;;;;;;;13.43;1.98;;;;;;;;;;5055244;28;20071;-76
2021/12/19 08:50:24;;;;;;;11.32;1.90;;;7.70;99.90;;;;;;5047635;28;20577;-76
2021/12/19 08:52:52;;;;;;;7.65;2.00;;;;;;;;;;5045068;28;21226;-76
2021/12/19 08:55:19;;;;;;;9.45;1.90;;;;;;;;;;5044432;28;20040;-76
2021/12/19 08:57:45;;;;;;;12.18;2.53;;;;;;;;;;5058114;28;20079;-76
2021/12/19 09:00:13;;;;;;;12.38;2.53;;;;;;;;;;5042670;28;20044;-77
2021/12/19 09:02:42;;;;;;;9.23;2.42;;;7.70;99.90;;;;;;5060307;28;20060;-76
2021/12/19 09:05:08;;;;;;;12.90;2.47;;;;;;;;;;5057675;28;20040;-76
2021/12/19 09:07:34;;;;;;;13.93;2.53;;;;;;;;;;5058447;28;20520;-76
2021/12/19 09:10:01;;;;;;;11.13;2.28;;;;;;;;;;5051085;28;20073;-76
2021/12/19 09:12:27;;;;;;;8.52;2.53;;;;;;;;;;5050787;28;20040;-76
2021/12/19 09:14:54;;;;;;;12.13;3.03;;;;;;;;;;5054301;28;20036;-76
2021/12/19 09:17:20;;;;;;;13.13;2.90;;;;;;;;;;5056086;28;20132;-76
2021/12/19 09:19:46;;;;;;;8.15;2.55;;;;;;;;;;5046280;28;20079;-76
2021/12/19 09:22:12;;;;;;;16.63;2.97;;;;;;;;;;5058069;28;20571;-76
2021/12/19 09:24:38;;;;;;;13.18;4.07;;;;;;;;;;5054661;28;20059;-76
2021/12/19 09:27:04;;;;;;;16.85;3.70;;;;;;;;;;5036890;28;20446;-76
2021/12/19 09:29:31;;;;;;;19.13;3.70;;;;;;;;;;5043003;28;20459;-76
2021/12/19 09:31:58;;;;;;;10.07;2.70;;;;;;;;;;5058887;28;20032;-75
2021/12/19 09:34:24;;;;;;;13.35;2.70;;;;;;;;;;5056775;28;20048;-76
2021/12/19 09:36:51;;;;;;;13.90;2.42;;;;;;;;;;5061004;28;20549;-76
2021/12/19 09:39:18;;;;;;;12.13;2.47;;;;;;;;;;5055647;28;20401;-76
2021/12/19 09:41:45;;;;;;;17.38;3.22;;;;;;;;;;5043982;28;20074;-76
2021/12/19 09:44:14;;;;;;;15.23;3.75;;;;;;;;;;5041776;28;20040;-76
2021/12/19 09:46:42;;;;;;;14.18;3.03;;;;;;;;;;5056244;28;20052;-76
2021/12/19 09:49:11;;;;;;;11.93;2.72;;;;;;;;;;5040751;28;20548;-76
2021/12/19 09:51:38;;;;;;;15.40;2.75;;;;;;;;;;5033396;28;20134;-76
2021/12/19 09:54:05;;;;;;;11.93;2.22;;;;;;;;;;5047473;28;20966;-76
2021/12/19 09:56:33;;;;;;;15.32;2.10;;;;;;;;;;5039298;28;20119;-76
2021/12/19 09:59:07;;;;;;;15.95;2.40;;;8.10;99.90;;;;;;5031794;28;20526;-75
2021/12/19 10:01:33;;;;;;;13.73;2.00;;;;;;;;;;5033854;28;20122;-76
2021/12/19 10:03:59;;;;;;;12.05;2.53;;;;;;;;;;5037066;28;20426;-76
2021/12/19 10:06:27;;;;;;;13.63;2.10;;;;;;;;;;5045158;28;20122;-76
2021/12/19 10:09:10;;;;;;;16.25;3.38;;;;;;;;;;5058894;28;20032;-76
2021/12/19 10:11:57;;;;;;;9.63;2.53;;;;;;;;;;5053174;28;20051;-76
2021/12/19 10:14:30;;;;;;;10.10;1.92;;;8.10;99.90;;;;;;5040995;28;20526;-76
2021/12/19 10:16:58;;;;;;;16.30;3.10;;;8.10;99.90;;;;;;5050192;28;20041;-76
2021/12/19 10:19:48;;;;;;;20.60;3.17;;;;;;;;;;5045628;28;20052;-76
2021/12/19 10:22:24;;;;;;;14.73;2.67;;;;;;;;;;5034660;28;20143;-76
2021/12/19 10:24:50;;;;;;;9.95;2.33;;;;;;;;;;5045550;28;20048;-76
2021/12/19 10:27:33;;;;;;;14.50;2.72;;;;;;;;;;5031819;28;20045;-76
2021/12/19 10:29:59;;;;;;;13.60;2.88;;;;;;;;;;5055201;28;20524;-76
2021/12/19 10:32:25;;;;;;;20.13;2.85;;;;;;;;;;5035701;28;20037;-76
2021/12/19 10:34:53;;;;;;;15.98;3.17;;;;;;;;;;5041021;28;20124;-76
2021/12/19 10:37:32;;;;;;;9.98;2.20;;;;;;;;;;5040447;28;20036;-76
2021/12/19 10:40:03;;;;;;;13.38;2.30;;;;;;;;;;5039157;28;20048;-76
2021/12/19 10:42:34;;;;;;;11.82;2.58;;;;;;;;;;5025026;28;20412;-76
2021/12/19 10:47:46;;;;;;;4.68;1.50;;;;;;;;;;5043806;28;20128;-77
2021/12/19 10:50:12;;;;;;;7.28;1.55;;;;;;;;;;5034441;28;20037;-77
2021/12/19 10:52:39;;;;;;;7.45;1.30;;;;;;;;;;5055898;28;20033;-77
2021/12/19 10:55:08;;;;;;;13.20;2.70;;;;;;;;;;5055167;28;20124;-77
2021/12/19 10:57:36;;;;;;;7.32;1.73;;;;;;;;;;5037889;28;20530;-77
2021/12/19 11:00:05;;;;;;;7.63;1.98;;;;;;;;;;5057871;28;20040;-77
2021/12/19 11:02:44;;;;;;;6.38;1.40;;;;;;;;;;5043340;28;20404;-77
2021/12/19 11:05:30;;;;;;;8.18;1.52;;;;;;;;;;5038441;28;20056;-77
2021/12/19 11:08:04;;;;;;;5.93;1.30;;;8.40;99.90;;;;;;5062408;28;20044;-77
2021/12/19 11:10:31;;;;;;;10.85;1.70;;;;;;;;;;5063095;28;20150;-77
2021/12/19 11:13:08;;;;;;;6.90;1.20;;;;;;;;;;5048433;28;20069;-77
2021/12/19 11:15:34;;;;;;;11.88;1.83;;;;;;;;;;5062998;28;20048;-77
2021/12/19 11:18:01;;;;;;;7.30;1.13;;;;;;;;;;5038625;28;20032;-77
2021/12/19 11:20:27;;;;;;;10.40;1.90;;;;;;;;;;5056668;28;20150;-77
2021/12/19 11:22:54;;;;;;;14.93;2.17;;;;;;;;;;5056494;28;20075;-77
2021/12/19 11:25:21;;;;;;;3.92;0.98;;;;;;;;;;5044847;28;20117;-77
2021/12/19 11:27:48;;;;;;;8.70;1.85;;;;;;;;;;5052104;28;20483;-77
2021/12/19 11:30:14;;;;;;;13.00;1.83;;;;;;;;;;5036651;28;20045;-77
2021/12/19 11:32:41;;;;;;;13.98;2.63;;;;;;;;;;5037689;28;20039;-77
2021/12/19 11:35:12;;;;;;;7.22;1.58;;;;;;;;;;5058888;28;20601;-77
2021/12/19 11:37:42;;;;;;;14.88;2.15;;;;;;;;;;5036772;28;20107;-77
2021/12/19 11:40:14;;;;;;;11.38;1.90;;;;;;;;;;5062232;28;20045;-77
2021/12/19 11:42:41;;;;;;;18.83;2.40;;;;;;;;;;5045709;28;20040;-77
2021/12/19 11:45:39;;;;;;;14.20;2.83;;;;;;;;;;5044467;28;20458;-77
2021/12/19 11:48:16;;;;;;;10.30;2.00;;;8.50;99.90;;;;;;5051977;28;20124;-77
2021/12/19 11:50:50;;;;;;;10.35;2.13;;;;;;;;;;5056790;28;20047;-77
2021/12/19 11:53:16;;;;;;;14.02;2.42;;;;;;;;;;5051331;28;20037;-77
2021/12/19 11:55:56;;;;;;;12.98;2.05;;;;;;;;;;5055999;28;20067;-77
2021/12/19 11:58:24;;;;;;;16.92;2.70;;;8.60;99.90;;;;;;5072699;28;20036;-76
2021/12/19 12:00:55;;;;;;;11.45;2.60;;;8.60;99.90;;;;;;5054165;28;20076;-77
2021/12/19 12:03:29;;;;;;;25.08;2.67;;;;;;;;;;5057146;28;20061;-76
2021/12/19 12:05:58;;;;;;;18.13;3.08;;;;;;;;;;5055457;28;20520;-77
2021/12/19 12:08:26;;;;;;;16.80;2.75;;;;;;;;;;5055497;28;20052;-77
2021/12/19 12:10:56;;;;;;;11.15;2.28;;;8.60;99.90;;;;;;5054148;28;20183;-76
2021/12/19 12:13:34;;;;;;;17.50;2.53;;;;;;;;;;5052944;28;20059;-77
2021/12/19 12:16:21;;;;;;;12.35;2.20;;;;;;;;;;5051025;28;20037;-77
2021/12/19 12:18:55;;;;;;;17.42;3.25;;;;;;;;;;5038911;28;20516;-77
2021/12/19 12:21:22;;;;;;;18.33;2.95;;;;;;;;;;5058722;28;20041;-77
2021/12/19 12:24:04;;;;;;;16.80;2.75;;;;;;;;;;5053625;28;20029;-77
2021/12/19 12:26:46;;;;;;;14.15;2.85;;;;;;;;;;5059306;28;20491;-77
2021/12/19 12:29:12;;;;;;;17.92;2.53;;;;;;;;;;5038757;28;20029;-77
2021/12/19 12:31:38;;;;;;;21.27;2.95;;;;;;;;;;5032312;28;20033;-77
2021/12/19 12:34:08;;;;;;;16.05;2.28;;;;;;;;;;5057423;28;20036;-77
2021/12/19 12:36:34;;;;;;;16.25;2.70;;;;;;;;;;5054702;28;20061;-77
2021/12/19 12:39:05;;;;;;;26.60;2.83;;;;;;;;;;5055316;28;20051;-77
2021/12/19 12:44:14;;;;;;;15.13;3.25;;;;;;;;;;5053144;28;20036;-77
2021/12/19 12:46:42;;;;;;;17.08;3.08;;;;;;;;;;5043916;28;20130;-77
2021/12/19 12:49:10;;;;;;;16.25;2.95;;;;;;;;;;5042624;28;20039;-77
2021/12/19 12:51:42;;;;;;;17.92;3.33;;;;;;;;;;5057756;28;20051;-77
2021/12/19 12:54:09;;;;;;;18.70;3.22;;;;;;;;;;5052669;28;20491;-77
2021/12/19 12:56:45;;;;;;;14.05;2.70;;;;;;;;;;5057939;28;20048;-77
2021/12/19 12:59:13;;;;;;;16.13;2.53;;;;;;;;;;5041187;28;20458;-77
2021/12/19 13:01:46;;;;;;;12.23;2.42;;;;;;;;;;5042542;28;20483;-77
2021/12/19 13:04:14;;;;;;;14.27;2.63;;;;;;;;;;5044134;28;20059;-77
2021/12/19 13:06:40;;;;;;;13.70;2.47;;;;;;;;;;5043256;28;20037;-77
2021/12/19 13:09:09;;;;;;;11.32;2.40;;;;;;;;;;5060599;28;20040;-77
2021/12/19 13:11:37;;;;;;;10.25;2.03;;;;;;;;;;5059138;28;20068;-77
2021/12/19 13:14:10;;;;;;;12.35;2.40;;;;;;;;;;5038049;28;20047;-77
2021/12/19 13:16:43;;;;;;;13.98;2.40;;;;;;;;;;5050536;28;20079;-77
2021/12/19 13:19:10;;;;;;;12.93;3.22;;;;;;;;;;5038508;28;20040;-77
2021/12/19 13:21:55;;;;;;;22.60;3.85;;;;;;;;;;5060022;28;20080;-77
2021/12/19 13:24:24;;;;;;;16.35;2.72;;;;;;;;;;5034079;28;20041;-77
2021/12/19 13:27:02;;;;;;;16.30;2.42;;;;;;;;;;5048176;28;20108;-77
2021/12/19 13:29:29;;;;;;;17.70;2.50;;;;;;;;;;5059442;28;20048;-76
2021/12/19 13:32:15;;;;;;;21.98;2.53;;;;;;;;;;5055145;28;20068;-76
2021/12/19 13:34:41;;;;;;;18.42;3.28;;;;;;;;;;5053391;28;20133;-76
2021/12/19 13:37:08;;;;;;;22.23;3.30;;;;;;;;;;5052600;28;20557;-76
2021/12/19 13:39:34;;;;;;;17.02;3.03;;;;;;;;;;5041022;28;20127;-76
2021/12/19 13:42:27;;;;;;;17.73;2.88;;;;;;;;;;5057410;28;20047;-77
2021/12/19 13:44:53;;;;;;;15.40;1.98;;;;;;;;;;5020248;28;20167;-77
2021/12/19 13:47:23;;;;;;;11.98;1.92;;;;;;;;;;5054812;28;20083;-76
2021/12/19 13:49:50;;;;;;;17.38;2.08;;;;;;;;;;5050649;28;20051;-76
2021/12/19 13:52:16;;;;;;;17.48;1.98;;;;;;;;;;5059882;28;20037;-77
2021/12/19 13:54:42;;;;;;;15.95;1.65;;;;;;;;;;5060715;28;20029;-76
2021/12/19 13:57:19;;;;;;;9.77;1.73;;;;;;;;;;5056132;28;20499;-76
2021/12/19 13:59:45;;;;;;;10.90;2.15;;;;;;;;;;5042893;28;20045;-76
2021/12/19 14:02:13;;;;;;;18.65;1.85;;;;;;;;;;5042255;28;20076;-76
2021/12/19 14:04:40;;;;;;;13.43;2.47;;;8.20;99.90;;;;;;5058873;28;20061;-77
2021/12/19 14:07:11;;;;;;;17.05;1.73;;;7.90;99.90;;;;;;5051323;28;20050;-76
2021/12/19 14:09:46;;;;;;;14.65;2.08;;;;;;;;;;5050709;28;20033;-76
2021/12/19 14:12:27;;;;;;;10.27;1.70;;;;;;;;;;5057617;28;20052;-76
2021/12/19 14:14:53;;;;;;;13.90;3.03;;;;;;;;;;5051383;28;20045;-77
2021/12/19 14:17:29;;;;;;;16.15;2.25;;;;;;;;;;5058883;28;20041;-76
2021/12/19 14:20:00;;;;;;;17.90;2.35;;;;;;;;;;5047617;28;20045;-76
2021/12/19 14:22:26;;;;;;;11.10;1.73;;;;;;;;;;5058719;28;20088;-76
2021/12/19 14:25:01;;;;;;;10.48;2.70;;;;;;;;;;5050094;28;20095;-76
2021/12/19 14:27:29;;;;;;;14.35;1.50;;;;;;;;;;5039892;28;20066;-76
2021/12/19 14:29:55;;;;;;;10.85;1.23;;;;;;;;;;5042383;28;20068;-76
2021/12/19 14:32:29;;;;;;;11.88;2.03;;;;;;;;;;5056298;28;20044;-76
2021/12/19 14:34:58;;;;;;;12.15;1.60;;;8.40;99.90;;;;;;5058107;28;20372;-75
2021/12/19 14:37:27;;;;;;;11.52;1.55;;;;;;;;;;5057732;28;20040;-76
2021/12/19 14:39:57;;;;;;;13.63;1.70;;;;;;;;;;5054165;28;20039;-76
2021/12/19 14:42:29;;;;;;;9.20;1.83;;;;;;;;;;5053773;28;20048;-76
2021/12/19 14:44:59;;;;;;;9.85;1.48;;;;;;;;;;5039158;28;20118;-75
2021/12/19 14:47:35;;;;;;;7.38;1.27;;;;;;;;;;5055440;28;20044;-76
2021/12/19 14:50:34;;;;;;;11.65;1.80;;;;;;;;;;5062863;28;20119;-76
2021/12/19 14:53:02;;;;;;;12.00;2.15;;;;;;;;;;5031958;28;20048;-76
2021/12/19 14:55:30;;;;;;;13.52;1.95;;;8.30;99.90;;;;;;5056771;28;20522;-76
2021/12/19 14:57:56;;;;;;;11.95;1.20;;;;;;;;;;5051183;28;20090;-75
2021/12/19 15:00:23;;;;;;;15.38;1.67;;;;;;;;;;5060957;28;20051;-74
2021/12/19 15:02:49;;;;;;;24.42;2.72;;;;;;;;;;5043109;28;20087;-75
2021/12/19 15:05:16;;;;;;;11.20;1.80;;;;;;;;;;5058437;28;20515;-75
2021/12/19 15:07:45;;;;;;;11.38;1.85;;;;;;;;;;5035919;28;20044;-75
2021/12/19 15:10:16;;;;;;;10.43;1.95;;;;;;;;;;5059599;28;20033;-75
2021/12/19 15:12:42;;;;;;;7.43;1.10;;;;;;;;;;5056034;28;20052;-75
2021/12/19 15:15:09;;;;;;;9.68;1.20;;;;;;;;;;5040633;28;20028;-75
2021/12/19 15:17:35;;;;;;;9.93;1.50;;;;;;;;;;5038895;28;20051;-75
2021/12/19 15:20:01;;;;;;;8.38;1.10;;;;;;;;;;5035544;28;20640;-75
2021/12/19 15:22:28;;;;;;;7.90;1.67;;;;;;;;;;5059673;28;20411;-75
2021/12/19 15:24:54;;;;;;;7.97;0.98;;;8.20;99.90;;;;;;5040117;28;20110;-75
2021/12/19 15:27:20;;;;;;;5.70;0.65;;;;;;;;;;5063307;28;20044;-75
2021/12/19 15:29:46;;;;;;;9.95;1.10;;;;;;;;;;5052090;28;20036;-75
2021/12/19 15:32:14;;;;;;;5.75;0.90;;;;;;;;;;5057302;28;20036;-75
2021/12/19 15:34:42;;;;;;;5.75;0.65;;;;;;;;;;5058881;28;20332;-77
2021/12/19 15:37:09;;;;;;;7.35;1.00;;;;;;;;;;5051042;28;20036;-77
2021/12/19 15:39:35;;;;;;;13.30;1.50;;;;;;;;;;5053966;28;20052;-77
2021/12/19 15:42:01;;;;;;;6.82;1.10;;;;;;;;;;5054006;28;20440;-77
2021/12/19 15:44:28;;;;;;;9.77;1.55;;;;;;;;;;5053340;28;20130;-77
2021/12/19 15:46:54;;;;;;;10.15;1.50;;;;;;;;;;5036118;28;20568;-77
2021/12/19 15:49:20;;;;;;;5.95;0.95;;;;;;;;;;5054147;28;20496;-77
2021/12/19 15:51:47;;;;;;;10.13;1.20;;;;;;;;;;5029496;28;20048;-77